sensor_id;sensor_type;location;lat;lon;timestamp;pressure;altitude;pressure_sealevel;temperature;humidity
37878;BME280;23715;53.652;8.516;2023-01-27T00:00:35;102691.45;;;7.49;100.00
37878;BME280;23715;53.652;8.516;2023-01-27T00:05:35;102694.19;;;7.47;100.00
37878;BME280;23715;53.652;8.516;2023-01-27T00:10:35;102690.70;;;7.45;100.00
37878;BME280;23715;53.652;8.516;2023-01-27T00:15:35;102689.58;;;7.40;100.00
37878;BME280;23715;53.652;8.516;2023-01-27T00:20:35;102688.63;;;7.31;100.00
37878;BME280;23715;53.652;8.516;2023-01-27T00:25:54;102704.63;;;7.27;100.00
37878;BME280;23715;53.652;8.516;2023-01-27T00:30:56;102704.63;;;7.33;100.00
37878;BME280;23715;53.652;8.516;2023-01-27T00:35:59;102702.88;;;7.32;100.00
37878;BME280;23715;53.652;8.516;2023-01-27T00:41:00;102704.78;;;7.40;100.00
37878;BME280;23715;53.652;8.516;2023-01-27T00:46:20;102707.31;;;7.33;100.00
37878;BME280;23715;53.652;8.516;2023-01-27T00:51:21;102712.89;;;7.16;100.00
37878;BME280;23715;53.652;8.516;2023-01-27T00:56:22;102710.38;;;7.23;100.00
37878;BME280;23715;53.652;8.516;2023-01-27T01:01:22;102720.01;;;7.28;100.00
37878;BME280;23715;53.652;8.516;2023-01-27T01:06:22;102720.27;;;7.21;100.00
37878;BME280;23715;53.652;8.516;2023-01-27T01:11:23;102714.77;;;7.24;100.00
37878;BME280;23715;53.652;8.516;2023-01-27T01:16:23;102717.70;;;7.18;100.00
37878;BME280;23715;53.652;8.516;2023-01-27T01:21:24;102714.66;;;7.28;100.00
37878;BME280;23715;53.652;8.516;2023-01-27T01:26:24;102706.80;;;7.13;100.00
37878;BME280;23715;53.652;8.516;2023-01-27T01:31:26;102724.50;;;7.05;100.00
37878;BME280;23715;53.652;8.516;2023-01-27T01:36:27;102725.45;;;7.04;100.00
37878;BME280;23715;53.652;8.516;2023-01-27T01:41:28;102727.18;;;7.05;100.00
37878;BME280;23715;53.652;8.516;2023-01-27T01:46:28;102729.67;;;6.88;100.00
37878;BME280;23715;53.652;8.516;2023-01-27T01:51:34;102730.38;;;6.93;100.00
37878;BME280;23715;53.652;8.516;2023-01-27T01:56:38;102743.48;;;6.99;100.00
37878;BME280;23715;53.652;8.516;2023-01-27T02:01:39;102754.80;;;6.83;100.00
37878;BME280;23715;53.652;8.516;2023-01-27T02:06:59;102758.90;;;6.92;100.00
37878;BME280;23715;53.652;8.516;2023-01-27T02:11:46;102765.00;;;6.96;100.00
37878;BME280;23715;53.652;8.516;2023-01-27T02:16:47;102765.66;;;6.79;100.00
37878;BME280;23715;53.652;8.516;2023-01-27T02:21:50;102769.57;;;6.82;100.00
37878;BME280;23715;53.652;8.516;2023-01-27T02:26:52;102753.27;;;6.66;100.00
37878;BME280;23715;53.652;8.516;2023-01-27T02:31:52;102767.95;;;6.78;100.00
37878;BME280;23715;53.652;8.516;2023-01-27T02:36:53;102774.27;;;6.75;100.00
37878;BME280;23715;53.652;8.516;2023-01-27T02:41:56;102767.97;;;6.66;100.00
37878;BME280;23715;53.652;8.516;2023-01-27T02:46:57;102762.22;;;6.53;100.00
37878;BME280;23715;53.652;8.516;2023-01-27T02:51:58;102769.61;;;6.58;100.00
37878;BME280;23715;53.652;8.516;2023-01-27T02:56:59;102771.23;;;6.51;100.00
37878;BME280;23715;53.652;8.516;2023-01-27T03:02:01;102780.93;;;6.53;100.00
37878;BME280;23715;53.652;8.516;2023-01-27T03:07:02;102790.39;;;6.50;100.00
37878;BME280;23715;53.652;8.516;2023-01-27T03:12:02;102780.36;;;6.45;100.00
37878;BME280;23715;53.652;8.516;2023-01-27T03:17:21;102797.94;;;6.39;100.00
37878;BME280;23715;53.652;8.516;2023-01-27T03:22:40;102800.70;;;6.24;100.00
37878;BME280;23715;53.652;8.516;2023-01-27T03:27:42;102810.95;;;6.36;100.00
37878;BME280;23715;53.652;8.516;2023-01-27T03:32:47;102817.69;;;6.35;100.00
37878;BME280;23715;53.652;8.516;2023-01-27T03:38:09;102828.61;;;6.29;100.00
37878;BME280;23715;53.652;8.516;2023-01-27T03:43:30;102832.40;;;6.10;100.00
37878;BME280;23715;53.652;8.516;2023-01-27T03:48:55;102840.49;;;5.93;100.00
37878;BME280;23715;53.652;8.516;2023-01-27T03:53:55;102849.86;;;6.06;100.00
37878;BME280;23715;53.652;8.516;2023-01-27T03:58:56;102843.67;;;6.18;100.00
37878;BME280;23715;53.652;8.516;2023-01-27T04:03:56;102853.23;;;6.25;100.00
37878;BME280;23715;53.652;8.516;2023-01-27T04:09:26;102848.20;;;6.16;100.00
37878;BME280;23715;53.652;8.516;2023-01-27T04:19:37;102850.33;;;6.06;100.00
37878;BME280;23715;53.652;8.516;2023-01-27T04:24:37;102856.31;;;6.13;100.00
37878;BME280;23715;53.652;8.516;2023-01-27T04:29:39;102850.83;;;6.17;100.00
37878;BME280;23715;53.652;8.516;2023-01-27T04:34:40;102850.06;;;6.14;100.00
37878;BME280;23715;53.652;8.516;2023-01-27T04:39:41;102864.16;;;6.05;100.00
37878;BME280;23715;53.652;8.516;2023-01-27T04:44:43;102871.16;;;5.95;100.00
37878;BME280;23715;53.652;8.516;2023-01-27T04:49:42;102872.54;;;5.93;100.00
37878;BME280;23715;53.652;8.516;2023-01-27T04:54:43;102880.59;;;5.92;100.00
37878;BME280;23715;53.652;8.516;2023-01-27T04:59:43;102883.86;;;5.88;100.00
37878;BME280;23715;53.652;8.516;2023-01-27T05:04:43;102895.36;;;5.90;100.00
37878;BME280;23715;53.652;8.516;2023-01-27T05:09:44;102895.54;;;5.84;100.00
37878;BME280;23715;53.652;8.516;2023-01-27T05:14:44;102893.95;;;5.78;100.00
37878;BME280;23715;53.652;8.516;2023-01-27T05:19:45;102905.19;;;5.75;100.00
37878;BME280;23715;53.652;8.516;2023-01-27T05:24:45;102898.22;;;5.84;100.00
37878;BME280;23715;53.652;8.516;2023-01-27T05:29:45;102894.55;;;5.88;100.00
37878;BME280;23715;53.652;8.516;2023-01-27T05:34:45;102885.42;;;5.94;100.00
37878;BME280;23715;53.652;8.516;2023-01-27T05:39:45;102898.94;;;5.89;100.00
37878;BME280;23715;53.652;8.516;2023-01-27T05:44:47;102897.25;;;6.01;100.00
37878;BME280;23715;53.652;8.516;2023-01-27T05:49:48;102895.22;;;6.08;100.00
37878;BME280;23715;53.652;8.516;2023-01-27T05:54:47;102898.36;;;6.08;100.00
37878;BME280;23715;53.652;8.516;2023-01-27T05:59:48;102905.44;;;6.09;100.00
37878;BME280;23715;53.652;8.516;2023-01-27T06:04:47;102909.45;;;5.94;100.00
37878;BME280;23715;53.652;8.516;2023-01-27T06:09:47;102902.63;;;6.00;100.00
37878;BME280;23715;53.652;8.516;2023-01-27T06:14:48;102897.94;;;6.06;100.00
37878;BME280;23715;53.652;8.516;2023-01-27T06:19:48;102909.05;;;6.08;100.00
37878;BME280;23715;53.652;8.516;2023-01-27T06:24:49;102923.48;;;6.02;100.00
37878;BME280;23715;53.652;8.516;2023-01-27T06:29:48;102925.89;;;6.10;100.00
37878;BME280;23715;53.652;8.516;2023-01-27T06:34:49;102935.37;;;6.18;100.00
37878;BME280;23715;53.652;8.516;2023-01-27T06:39:48;102944.28;;;6.32;100.00
37878;BME280;23715;53.652;8.516;2023-01-27T06:44:49;102949.97;;;6.35;100.00
37878;BME280;23715;53.652;8.516;2023-01-27T06:49:48;102957.86;;;6.26;100.00
37878;BME280;23715;53.652;8.516;2023-01-27T06:54:48;102967.91;;;6.31;100.00
37878;BME280;23715;53.652;8.516;2023-01-27T06:59:51;102965.75;;;6.29;100.00
37878;BME280;23715;53.652;8.516;2023-01-27T07:04:54;102968.63;;;6.23;100.00
37878;BME280;23715;53.652;8.516;2023-01-27T07:09:54;102970.11;;;6.18;100.00
37878;BME280;23715;53.652;8.516;2023-01-27T07:14:54;102966.95;;;6.07;100.00
37878;BME280;23715;53.652;8.516;2023-01-27T07:19:55;102979.41;;;6.06;100.00
37878;BME280;23715;53.652;8.516;2023-01-27T07:24:55;102981.48;;;6.12;100.00
37878;BME280;23715;53.652;8.516;2023-01-27T07:29:56;102993.07;;;6.11;100.00
37878;BME280;23715;53.652;8.516;2023-01-27T07:34:55;102993.07;;;6.11;100.00
37878;BME280;23715;53.652;8.516;2023-01-27T07:39:56;102987.38;;;6.35;100.00
37878;BME280;23715;53.652;8.516;2023-01-27T07:44:56;102992.42;;;6.31;100.00
37878;BME280;23715;53.652;8.516;2023-01-27T07:49:57;103003.63;;;6.29;100.00
37878;BME280;23715;53.652;8.516;2023-01-27T07:55:00;103007.59;;;6.30;100.00
37878;BME280;23715;53.652;8.516;2023-01-27T08:00:00;103002.86;;;6.38;100.00
37878;BME280;23715;53.652;8.516;2023-01-27T08:05:02;103009.83;;;6.56;100.00
37878;BME280;23715;53.652;8.516;2023-01-27T08:10:02;103012.11;;;6.55;100.00
37878;BME280;23715;53.652;8.516;2023-01-27T08:15:03;103017.80;;;6.57;100.00
37878;BME280;23715;53.652;8.516;2023-01-27T08:20:04;103010.78;;;6.41;100.00
37878;BME280;23715;53.652;8.516;2023-01-27T08:25:05;103010.78;;;6.41;100.00
37878;BME280;23715;53.652;8.516;2023-01-27T08:30:06;103033.63;;;6.50;100.00
37878;BME280;23715;53.652;8.516;2023-01-27T08:35:07;103044.58;;;6.42;100.00
37878;BME280;23715;53.652;8.516;2023-01-27T08:40:09;103041.27;;;6.49;100.00
37878;BME280;23715;53.652;8.516;2023-01-27T08:45:09;103030.00;;;6.53;100.00
37878;BME280;23715;53.652;8.516;2023-01-27T08:50:10;103030.00;;;6.53;100.00
37878;BME280;23715;53.652;8.516;2023-01-27T08:55:11;103054.50;;;6.52;100.00
37878;BME280;23715;53.652;8.516;2023-01-27T09:00:11;103060.01;;;6.34;100.00
37878;BME280;23715;53.652;8.516;2023-01-27T09:05:11;103068.62;;;6.29;100.00
37878;BME280;23715;53.652;8.516;2023-01-27T09:10:12;103084.44;;;6.22;100.00
37878;BME280;23715;53.652;8.516;2023-01-27T09:15:14;103084.44;;;6.22;100.00
37878;BME280;23715;53.652;8.516;2023-01-27T09:20:14;103087.25;;;6.32;100.00
37878;BME280;23715;53.652;8.516;2023-01-27T09:25:16;103089.11;;;6.43;100.00
37878;BME280;23715;53.652;8.516;2023-01-27T09:30:17;103075.19;;;6.47;100.00
37878;BME280;23715;53.652;8.516;2023-01-27T09:35:19;103083.86;;;6.54;100.00
37878;BME280;23715;53.652;8.516;2023-01-27T09:45:52;103086.48;;;6.42;100.00
37878;BME280;23715;53.652;8.516;2023-01-27T09:51:11;103078.87;;;6.56;100.00
37878;BME280;23715;53.652;8.516;2023-01-27T09:56:15;103081.92;;;6.59;100.00
37878;BME280;23715;53.652;8.516;2023-01-27T10:01:32;103075.84;;;6.54;100.00
37878;BME280;23715;53.652;8.516;2023-01-27T10:11:46;103085.10;;;6.43;100.00
37878;BME280;23715;53.652;8.516;2023-01-27T10:27:22;103088.47;;;6.35;100.00
37878;BME280;23715;53.652;8.516;2023-01-27T10:32:31;103088.16;;;6.31;100.00
37878;BME280;23715;53.652;8.516;2023-01-27T10:37:49;103094.57;;;6.25;100.00
37878;BME280;23715;53.652;8.516;2023-01-27T10:42:57;103090.23;;;6.36;100.00
37878;BME280;23715;53.652;8.516;2023-01-27T10:53:13;103094.59;;;6.11;100.00
37878;BME280;23715;53.652;8.516;2023-01-27T10:58:30;103092.13;;;6.33;100.00
37878;BME280;23715;53.652;8.516;2023-01-27T11:03:32;103095.88;;;6.40;100.00
37878;BME280;23715;53.652;8.516;2023-01-27T11:08:34;103088.99;;;6.47;100.00
37878;BME280;23715;53.652;8.516;2023-01-27T11:13:37;103093.17;;;6.42;100.00
37878;BME280;23715;53.652;8.516;2023-01-27T11:18:38;103088.39;;;6.52;100.00
37878;BME280;23715;53.652;8.516;2023-01-27T11:23:47;103080.33;;;6.53;100.00
37878;BME280;23715;53.652;8.516;2023-01-27T11:34:22;103071.02;;;6.52;100.00
37878;BME280;23715;53.652;8.516;2023-01-27T11:39:22;103067.52;;;6.50;100.00
37878;BME280;23715;53.652;8.516;2023-01-27T11:44:28;103081.45;;;6.59;100.00
37878;BME280;23715;53.652;8.516;2023-01-27T11:49:33;103065.97;;;6.69;100.00
37878;BME280;23715;53.652;8.516;2023-01-27T11:54:41;103057.42;;;6.71;100.00
37878;BME280;23715;53.652;8.516;2023-01-27T11:59:41;103052.71;;;6.79;100.00
37878;BME280;23715;53.652;8.516;2023-01-27T12:04:51;103042.11;;;6.76;100.00
37878;BME280;23715;53.652;8.516;2023-01-27T12:09:51;103030.89;;;6.78;100.00
37878;BME280;23715;53.652;8.516;2023-01-27T12:14:59;103018.62;;;6.84;100.00
37878;BME280;23715;53.652;8.516;2023-01-27T12:20:06;103018.62;;;6.84;100.00
37878;BME280;23715;53.652;8.516;2023-01-27T12:25:13;103036.34;;;6.89;100.00
37878;BME280;23715;53.652;8.516;2023-01-27T12:30:24;103028.53;;;6.69;100.00
37878;BME280;23715;53.652;8.516;2023-01-27T12:35:33;103026.59;;;6.61;100.00
37878;BME280;23715;53.652;8.516;2023-01-27T12:40:38;103014.30;;;6.69;100.00
37878;BME280;23715;53.652;8.516;2023-01-27T12:45:39;103013.41;;;6.81;100.00
37878;BME280;23715;53.652;8.516;2023-01-27T13:06:43;102994.89;;;7.00;100.00
37878;BME280;23715;53.652;8.516;2023-01-27T13:11:45;102998.38;;;6.91;100.00
37878;BME280;23715;53.652;8.516;2023-01-27T13:16:52;102999.52;;;6.83;100.00
37878;BME280;23715;53.652;8.516;2023-01-27T13:21:54;102986.86;;;6.75;100.00
37878;BME280;23715;53.652;8.516;2023-01-27T13:26:55;102973.30;;;6.81;100.00
37878;BME280;23715;53.652;8.516;2023-01-27T13:32:31;102975.92;;;6.83;100.00
37878;BME280;23715;53.652;8.516;2023-01-27T13:37:39;102976.60;;;6.88;100.00
37878;BME280;23715;53.652;8.516;2023-01-27T13:47:50;102990.68;;;6.81;100.00
37878;BME280;23715;53.652;8.516;2023-01-27T13:52:49;102988.58;;;6.78;100.00
37878;BME280;23715;53.652;8.516;2023-01-27T13:57:57;102983.09;;;6.81;100.00
37878;BME280;23715;53.652;8.516;2023-01-27T14:18:45;102999.61;;;6.80;100.00
37878;BME280;23715;53.652;8.516;2023-01-27T14:34:25;103000.11;;;6.92;100.00
37878;BME280;23715;53.652;8.516;2023-01-27T15:00:24;103005.11;;;6.89;100.00
37878;BME280;23715;53.652;8.516;2023-01-27T15:05:26;103002.81;;;6.78;100.00
37878;BME280;23715;53.652;8.516;2023-01-27T15:10:26;103010.64;;;6.58;100.00
37878;BME280;23715;53.652;8.516;2023-01-27T15:15:35;103010.55;;;6.61;100.00
37878;BME280;23715;53.652;8.516;2023-01-27T15:26:01;103019.39;;;6.63;100.00
37878;BME280;23715;53.652;8.516;2023-01-27T15:36:31;103013.69;;;5.92;100.00
37878;BME280;23715;53.652;8.516;2023-01-27T15:41:32;103026.31;;;6.02;100.00
37878;BME280;23715;53.652;8.516;2023-01-27T15:46:34;103034.99;;;6.09;100.00
37878;BME280;23715;53.652;8.516;2023-01-27T15:51:36;103044.70;;;6.26;100.00
37878;BME280;23715;53.652;8.516;2023-01-27T15:56:49;103040.60;;;6.14;100.00
37878;BME280;23715;53.652;8.516;2023-01-27T16:01:47;103038.33;;;6.30;100.00
37878;BME280;23715;53.652;8.516;2023-01-27T16:06:56;103038.11;;;6.23;100.00
37878;BME280;23715;53.652;8.516;2023-01-27T16:17:25;103036.75;;;6.10;100.00
37878;BME280;23715;53.652;8.516;2023-01-27T16:22:26;103036.75;;;6.10;100.00
37878;BME280;23715;53.652;8.516;2023-01-27T16:27:54;103047.37;;;6.26;100.00
37878;BME280;23715;53.652;8.516;2023-01-27T16:38:26;103053.83;;;6.19;100.00
37878;BME280;23715;53.652;8.516;2023-01-27T16:43:32;103055.34;;;6.13;100.00
37878;BME280;23715;53.652;8.516;2023-01-27T16:48:40;103066.98;;;5.97;100.00
37878;BME280;23715;53.652;8.516;2023-01-27T16:53:42;103063.49;;;5.93;100.00
37878;BME280;23715;53.652;8.516;2023-01-27T16:58:43;103070.23;;;6.06;100.00
37878;BME280;23715;53.652;8.516;2023-01-27T17:03:45;103074.55;;;6.11;100.00
37878;BME280;23715;53.652;8.516;2023-01-27T17:08:47;103070.66;;;6.08;100.00
37878;BME280;23715;53.652;8.516;2023-01-27T17:14:11;103086.66;;;5.93;100.00
37878;BME280;23715;53.652;8.516;2023-01-27T17:18:52;103087.01;;;5.97;100.00
37878;BME280;23715;53.652;8.516;2023-01-27T17:24:04;103096.23;;;6.01;100.00
37878;BME280;23715;53.652;8.516;2023-01-27T17:29:00;103090.55;;;5.97;100.00
37878;BME280;23715;53.652;8.516;2023-01-27T17:34:00;103089.56;;;5.85;100.00
37878;BME280;23715;53.652;8.516;2023-01-27T17:39:01;103091.05;;;5.95;100.00
37878;BME280;23715;53.652;8.516;2023-01-27T17:44:09;103088.86;;;5.93;100.00
37878;BME280;23715;53.652;8.516;2023-01-27T17:49:14;103095.81;;;5.84;100.00
37878;BME280;23715;53.652;8.516;2023-01-27T17:54:22;103104.56;;;5.89;100.00
37878;BME280;23715;53.652;8.516;2023-01-27T17:59:22;103097.84;;;5.76;100.00
37878;BME280;23715;53.652;8.516;2023-01-27T18:04:24;103102.64;;;5.79;100.00
37878;BME280;23715;53.652;8.516;2023-01-27T18:09:25;103105.89;;;5.74;100.00
37878;BME280;23715;53.652;8.516;2023-01-27T18:14:30;103107.66;;;5.44;100.00
37878;BME280;23715;53.652;8.516;2023-01-27T18:19:29;103111.22;;;5.44;100.00
37878;BME280;23715;53.652;8.516;2023-01-27T18:24:29;103118.28;;;5.45;100.00
37878;BME280;23715;53.652;8.516;2023-01-27T18:29:34;103120.55;;;5.59;100.00
37878;BME280;23715;53.652;8.516;2023-01-27T18:34:43;103110.18;;;5.80;100.00
37878;BME280;23715;53.652;8.516;2023-01-27T18:39:40;103117.63;;;5.68;100.00
37878;BME280;23715;53.652;8.516;2023-01-27T18:44:41;103117.63;;;5.68;100.00
37878;BME280;23715;53.652;8.516;2023-01-27T18:49:42;103128.27;;;5.70;100.00
37878;BME280;23715;53.652;8.516;2023-01-27T18:54:42;103134.73;;;5.46;100.00
37878;BME280;23715;53.652;8.516;2023-01-27T18:59:42;103136.58;;;5.59;100.00
37878;BME280;23715;53.652;8.516;2023-01-27T19:04:43;103141.06;;;5.26;100.00
37878;BME280;23715;53.652;8.516;2023-01-27T19:09:45;103128.77;;;5.20;100.00
37878;BME280;23715;53.652;8.516;2023-01-27T19:14:47;103135.09;;;5.33;100.00
37878;BME280;23715;53.652;8.516;2023-01-27T19:19:47;103136.50;;;5.13;100.00
37878;BME280;23715;53.652;8.516;2023-01-27T19:24:48;103127.23;;;5.10;100.00
37878;BME280;23715;53.652;8.516;2023-01-27T19:29:48;103125.77;;;4.98;100.00
37878;BME280;23715;53.652;8.516;2023-01-27T19:34:49;103127.52;;;5.34;100.00
37878;BME280;23715;53.652;8.516;2023-01-27T19:39:48;103129.70;;;5.18;100.00
37878;BME280;23715;53.652;8.516;2023-01-27T19:44:49;103143.30;;;4.91;100.00
37878;BME280;23715;53.652;8.516;2023-01-27T19:49:49;103137.47;;;4.93;100.00
37878;BME280;23715;53.652;8.516;2023-01-27T19:54:50;103128.64;;;4.91;100.00
37878;BME280;23715;53.652;8.516;2023-01-27T19:59:50;103116.67;;;5.07;100.00
37878;BME280;23715;53.652;8.516;2023-01-27T20:04:51;103118.04;;;4.87;100.00
37878;BME280;23715;53.652;8.516;2023-01-27T20:09:51;103117.91;;;4.76;100.00
37878;BME280;23715;53.652;8.516;2023-01-27T20:14:52;103113.80;;;4.80;100.00
37878;BME280;23715;53.652;8.516;2023-01-27T20:19:51;103116.14;;;4.57;100.00
37878;BME280;23715;53.652;8.516;2023-01-27T20:24:52;103121.59;;;4.70;100.00
37878;BME280;23715;53.652;8.516;2023-01-27T20:29:52;103123.83;;;4.71;100.00
37878;BME280;23715;53.652;8.516;2023-01-27T20:34:52;103125.05;;;4.57;100.00
37878;BME280;23715;53.652;8.516;2023-01-27T20:39:54;103140.23;;;4.54;100.00
37878;BME280;23715;53.652;8.516;2023-01-27T20:44:55;103141.90;;;4.58;100.00
37878;BME280;23715;53.652;8.516;2023-01-27T20:49:54;103144.28;;;4.50;100.00
37878;BME280;23715;53.652;8.516;2023-01-27T20:54:55;103139.11;;;4.62;100.00
37878;BME280;23715;53.652;8.516;2023-01-27T20:59:54;103142.58;;;4.66;100.00
37878;BME280;23715;53.652;8.516;2023-01-27T21:04:56;103144.78;;;4.48;100.00
37878;BME280;23715;53.652;8.516;2023-01-27T21:09:57;103139.64;;;4.59;100.00
37878;BME280;23715;53.652;8.516;2023-01-27T21:14:57;103135.83;;;4.51;100.00
37878;BME280;23715;53.652;8.516;2023-01-27T21:19:59;103134.40;;;4.56;100.00
37878;BME280;23715;53.652;8.516;2023-01-27T21:25:00;103136.72;;;4.52;100.00
37878;BME280;23715;53.652;8.516;2023-01-27T21:30:00;103130.80;;;4.39;100.00
37878;BME280;23715;53.652;8.516;2023-01-27T21:35:00;103133.84;;;4.22;100.00
37878;BME280;23715;53.652;8.516;2023-01-27T21:40:02;103123.22;;;4.20;100.00
37878;BME280;23715;53.652;8.516;2023-01-27T21:45:02;103119.34;;;4.16;100.00
37878;BME280;23715;53.652;8.516;2023-01-27T21:50:13;103112.25;;;4.15;100.00
37878;BME280;23715;53.652;8.516;2023-01-27T22:00:23;103116.62;;;3.98;100.00
37878;BME280;23715;53.652;8.516;2023-01-27T22:05:25;103116.30;;;3.71;100.00
37878;BME280;23715;53.652;8.516;2023-01-27T22:10:28;103120.42;;;3.65;100.00
37878;BME280;23715;53.652;8.516;2023-01-27T22:15:29;103128.20;;;3.53;100.00
37878;BME280;23715;53.652;8.516;2023-01-27T22:20:30;103124.27;;;3.50;100.00
37878;BME280;23715;53.652;8.516;2023-01-27T22:25:30;103134.09;;;3.22;100.00
37878;BME280;23715;53.652;8.516;2023-01-27T22:30:30;103131.34;;;3.03;100.00
37878;BME280;23715;53.652;8.516;2023-01-27T22:35:31;103131.70;;;3.07;100.00
37878;BME280;23715;53.652;8.516;2023-01-27T22:40:30;103137.95;;;3.06;100.00
37878;BME280;23715;53.652;8.516;2023-01-27T22:45:31;103134.75;;;2.85;100.00
37878;BME280;23715;53.652;8.516;2023-01-27T22:50:31;103139.25;;;2.80;100.00
37878;BME280;23715;53.652;8.516;2023-01-27T22:55:31;103134.67;;;2.63;100.00
37878;BME280;23715;53.652;8.516;2023-01-27T23:00:31;103126.04;;;2.77;100.00
37878;BME280;23715;53.652;8.516;2023-01-27T23:05:32;103130.48;;;2.46;100.00
37878;BME280;23715;53.652;8.516;2023-01-27T23:10:32;103128.75;;;2.45;100.00
37878;BME280;23715;53.652;8.516;2023-01-27T23:15:33;103122.45;;;2.52;100.00
37878;BME280;23715;53.652;8.516;2023-01-27T23:20:34;103114.41;;;2.27;100.00
37878;BME280;23715;53.652;8.516;2023-01-27T23:25:35;103128.06;;;1.99;100.00
37878;BME280;23715;53.652;8.516;2023-01-27T23:30:36;103135.05;;;2.06;100.00
37878;BME280;23715;53.652;8.516;2023-01-27T23:35:36;103138.06;;;2.12;100.00
37878;BME280;23715;53.652;8.516;2023-01-27T23:40:37;103142.11;;;2.09;100.00
37878;BME280;23715;53.652;8.516;2023-01-27T23:45:37;103139.16;;;1.61;100.00
37878;BME280;23715;53.652;8.516;2023-01-27T23:50:37;103136.09;;;1.94;100.00
37878;BME280;23715;53.652;8.516;2023-01-27T23:55:37;103136.09;;;1.94;100.00
